Time;durP1;ratioP1;P1;durP2;ratioP2;P2;SDS_P1;SDS_P2;PMS_P1;PMS_P2;Temp;Humidity;BMP_temperature;BMP_pressure;BME280_temperature;BME280_humidity;BME280_pressure;Samples;Min_cycle;Max_cycle;Signal;HPM_P1;HPM_P2
2021/08/24 00:00:34;;;;;;;1.83;1.70;;;20.10;99.80;;;;;;5094851;28;20387;-79
2021/08/24 00:03:01;;;;;;;1.20;1.20;;;20.10;99.90;;;;;;5094960;28;20032;-78
2021/08/24 00:05:33;;;;;;;2.17;1.50;;;20.00;99.90;;;;;;5074929;28;20017;-78
2021/08/24 00:08:00;;;;;;;1.35;1.30;;;20.10;99.70;;;;;;5074392;28;20053;-78
2021/08/24 00:10:29;;;;;;;1.45;1.38;;;20.10;99.60;;;;;;5074558;28;20549;-79
2021/08/24 00:12:55;;;;;;;3.15;1.55;;;20.20;99.10;;;;;;5073717;28;20484;-79
2021/08/24 00:15:21;;;;;;;2.05;1.40;;;20.30;98.90;;;;;;5074525;28;20070;-79
2021/08/24 00:17:47;;;;;;;4.32;1.50;;;20.20;98.90;;;;;;5071566;28;20025;-78
2021/08/24 00:20:14;;;;;;;1.40;1.33;;;20.10;99.20;;;;;;5094663;28;20012;-78
2021/08/24 00:22:41;;;;;;;1.33;1.08;;;20.00;99.30;;;;;;5076348;28;20024;-78
2021/08/24 00:25:10;;;;;;;1.17;1.17;;;19.90;99.40;;;;;;5094746;28;20032;-79
2021/08/24 00:27:36;;;;;;;1.52;1.33;;;20.00;99.20;;;;;;5094424;28;20028;-79
2021/08/24 00:30:04;;;;;;;1.00;1.00;;;20.10;99.10;;;;;;5076209;28;20023;-79
2021/08/24 00:32:30;;;;;;;1.40;1.30;;;20.10;99.00;;;;;;5094574;28;20387;-79
2021/08/24 00:34:56;;;;;;;1.63;1.27;;;20.10;99.00;;;;;;5094363;28;20095;-79
2021/08/24 00:37:22;;;;;;;1.45;1.35;;;20.10;98.90;;;;;;5076395;28;20024;-78
2021/08/24 00:39:48;;;;;;;2.28;1.48;;;20.10;98.80;;;;;;5094059;28;20050;-79
2021/08/24 00:42:18;;;;;;;1.80;1.50;;;20.10;98.80;;;;;;5094295;28;20024;-79
2021/08/24 00:44:47;;;;;;;1.58;1.48;;;20.10;98.60;;;;;;5094159;28;20387;-79
2021/08/24 00:47:21;;;;;;;1.75;1.20;;;20.10;98.60;;;;;;5094190;28;20024;-78
2021/08/24 00:49:48;;;;;;;2.85;2.40;;;20.10;98.60;;;;;;5075521;28;20106;-79
2021/08/24 00:52:19;;;;;;;1.60;1.50;;;20.10;98.50;;;;;;5094154;28;20360;-79
2021/08/24 00:54:45;;;;;;;1.58;1.30;;;20.00;98.70;;;;;;5075952;28;20024;-79
2021/08/24 00:57:15;;;;;;;2.95;1.50;;;20.00;98.90;;;;;;5093962;28;20016;-79
2021/08/24 00:59:41;;;;;;;3.85;1.75;;;20.00;98.80;;;;;;5093716;28;20055;-79
2021/08/24 01:02:08;;;;;;;1.88;1.40;;;20.00;98.70;;;;;;5093822;28;20433;-79
2021/08/24 01:04:35;;;;;;;3.13;1.30;;;20.00;98.60;;;;;;5093755;28;20028;-79
2021/08/24 01:07:33;;;;;;;1.98;1.88;;;20.00;98.60;;;;;;5093872;28;20024;-79
2021/08/24 01:10:22;;;;;;;4.28;1.70;;;20.00;98.50;;;;;;5093139;28;20391;-79
2021/08/24 01:13:05;;;;;;;2.30;1.75;;;20.00;98.50;;;;;;5093540;28;20124;-79
2021/08/24 01:15:50;;;;;;;2.15;1.58;;;20.00;98.40;;;;;;5093508;28;20028;-79
2021/08/24 01:18:48;;;;;;;2.00;1.50;;;19.90;98.50;;;;;;5075309;28;20093;-79
2021/08/24 01:21:30;;;;;;;1.75;1.65;;;19.80;98.70;;;;;;5093384;28;20026;-78
2021/08/24 01:24:17;;;;;;;2.38;1.83;;;19.80;98.90;;;;;;5093551;28;20479;-79
2021/08/24 01:26:55;;;;;;;3.30;1.60;;;19.80;98.80;;;;;;5093395;28;20608;-79
2021/08/24 01:29:46;;;;;;;1.77;1.67;;;19.80;98.70;;;;;;5093245;28;20066;-79
2021/08/24 01:32:48;;;;;;;3.15;1.70;;;19.80;98.70;;;;;;5075287;28;20024;-79
2021/08/24 01:35:43;;;;;;;1.80;1.70;;;19.80;98.70;;;;;;5093309;28;20016;-79
2021/08/24 01:38:18;;;;;;;2.15;1.52;;;19.80;98.70;;;;;;5093324;28;20012;-79
2021/08/24 01:40:50;;;;;;;1.63;1.50;;;19.70;98.70;;;;;;5093268;28;20073;-79
2021/08/24 01:43:19;;;;;;;;;;;19.70;98.50;;;;;;5093786;28;20021;-78
2021/08/24 01:45:51;;;;;;;1.48;1.40;;;19.70;98.40;;;;;;5093190;28;19908;-79
2021/08/24 01:48:22;;;;;;;1.50;1.40;;;19.70;98.50;;;;;;5093133;28;20111;-78
2021/08/24 01:50:55;;;;;;;1.60;1.50;;;19.70;98.30;;;;;;5093000;28;20047;-78
2021/08/24 01:53:28;;;;;;;1.52;1.42;;;19.70;98.50;;;;;;5093163;28;20120;-79
2021/08/24 01:56:05;;;;;;;1.15;1.15;;;19.70;98.60;;;;;;5075022;28;20031;-79
2021/08/24 01:58:39;;;;;;;1.75;1.20;;;19.60;98.50;;;;;;5093036;28;20409;-79
2021/08/24 02:01:10;;;;;;;1.30;1.20;;;19.70;98.50;;;;;;5092980;28;20107;-78
2021/08/24 02:03:40;;;;;;;1.77;1.60;;;19.70;98.50;;;;;;5093163;28;20627;-79
2021/08/24 02:06:20;;;;;;;1.45;1.35;;;19.60;98.60;;;;;;5074960;28;20035;-79
2021/08/24 02:08:50;;;;;;;2.60;1.25;;;19.60;98.50;;;;;;5092534;28;20075;-79
2021/08/24 02:11:16;;;;;;;1.48;1.38;;;19.50;98.50;;;;;;5092904;28;20077;-79
2021/08/24 02:13:46;;;;;;;2.97;1.20;;;19.50;98.50;;;;;;5092874;28;20066;-79
2021/08/24 02:16:16;;;;;;;1.10;0.95;;;19.50;98.50;;;;;;5074651;28;20024;-79
2021/08/24 02:18:48;;;;;;;1.88;1.40;;;19.50;98.40;;;;;;5092561;28;20034;-79
2021/08/24 02:21:20;;;;;;;;;;;19.50;98.20;;;;;;5075080;28;20578;-79
2021/08/24 02:23:49;;;;;;;1.52;1.42;;;19.50;98.20;;;;;;5074648;28;20283;-79
2021/08/24 02:26:18;;;;;;;2.05;1.35;;;19.50;98.20;;;;;;5092693;28;20024;-79
2021/08/24 02:28:52;;;;;;;1.48;1.38;;;19.50;98.30;;;;;;5092584;28;20055;-79
2021/08/24 02:31:48;;;;;;;0.88;0.88;;;19.40;98.10;;;;;;5092780;28;20077;-79
2021/08/24 02:34:31;;;;;;;1.27;1.17;;;19.40;98.10;;;;;;5092601;28;20032;-79
2021/08/24 02:37:17;;;;;;;1.45;0.93;;;19.40;98.10;;;;;;5096747;28;20020;-79
2021/08/24 02:40:01;;;;;;;0.95;0.95;;;19.40;98.10;;;;;;5096846;28;20020;-79
2021/08/24 02:42:33;;;;;;;1.10;1.00;;;19.50;97.60;;;;;;5078541;28;20085;-79
2021/08/24 02:45:12;;;;;;;0.98;0.98;;;19.50;97.50;;;;;;5096705;28;20021;-79
2021/08/24 02:47:39;;;;;;;4.22;1.50;;;19.50;97.20;;;;;;5096408;28;20472;-79
2021/08/24 02:50:07;;;;;;;1.20;1.10;;;19.50;97.10;;;;;;5078109;28;20096;-79
2021/08/24 02:52:35;;;;;;;1.67;1.15;;;19.40;97.00;;;;;;5096431;28;20020;-79
2021/08/24 02:55:01;;;;;;;0.93;0.93;;;19.50;97.00;;;;;;5096216;28;20470;-79
2021/08/24 02:57:27;;;;;;;1.42;1.33;;;19.40;96.80;;;;;;5078049;28;20106;-79
2021/08/24 02:59:53;;;;;;;1.10;1.10;;;19.40;96.80;;;;;;5096357;28;20030;-79
2021/08/24 03:02:19;;;;;;;0.85;0.85;;;19.30;96.80;;;;;;5096224;28;20442;-79
2021/08/24 03:04:45;;;;;;;1.08;1.02;;;19.30;97.00;;;;;;5077909;28;20038;-79
2021/08/24 03:07:19;;;;;;;1.10;1.00;;;19.20;96.80;;;;;;5096020;28;20537;-78
2021/08/24 03:09:46;;;;;;;0.82;0.82;;;19.20;96.90;;;;;;5095789;28;20042;-78
2021/08/24 03:12:36;;;;;;;1.30;1.20;;;19.20;96.80;;;;;;5095848;28;20103;-79
2021/08/24 03:15:20;;;;;;;1.48;1.10;;;19.20;96.70;;;;;;5096037;28;20031;-79
2021/08/24 03:17:56;;;;;;;1.08;1.08;;;19.20;96.50;;;;;;5095923;28;20013;-79
2021/08/24 03:20:26;;;;;;;1.55;1.25;;;19.10;97.00;;;;;;5095730;28;20510;-79
2021/08/24 03:22:52;;;;;;;0.90;0.90;;;19.00;97.20;;;;;;5095938;28;20024;-79
2021/08/24 03:25:20;;;;;;;3.05;1.00;;;18.90;97.30;;;;;;5095897;28;20024;-79
2021/08/24 03:27:51;;;;;;;0.93;0.93;;;18.90;97.30;;;;;;5095541;28;20024;-79
2021/08/24 03:30:18;;;;;;;1.05;0.98;;;19.00;97.10;;;;;;5095528;28;20019;-79
2021/08/24 03:32:44;;;;;;;1.00;1.00;;;18.90;96.90;;;;;;5077485;28;20064;-79
2021/08/24 03:35:11;;;;;;;1.00;0.90;;;19.00;96.30;;;;;;5095484;28;20034;-79
2021/08/24 03:37:37;;;;;;;1.25;1.23;;;19.10;96.10;;;;;;5095599;28;20464;-78
2021/08/24 03:40:06;;;;;;;2.05;1.00;;;19.10;96.30;;;;;;5095351;28;20031;-79
2021/08/24 03:42:32;;;;;;;1.77;1.15;;;19.10;96.20;;;;;;5095463;28;20516;-79
2021/08/24 03:44:58;;;;;;;1.08;0.80;;;19.20;96.20;;;;;;5077184;28;20028;-78
2021/08/24 03:47:24;;;;;;;1.10;1.10;;;19.20;95.70;;;;;;5094081;28;20104;-79
2021/08/24 03:49:49;;;;;;;0.93;0.93;;;19.20;95.50;;;;;;5095070;28;20107;-79
2021/08/24 03:52:15;;;;;;;1.33;1.23;;;19.20;95.50;;;;;;5095242;28;20023;-79
2021/08/24 03:54:41;;;;;;;1.20;1.10;;;19.30;95.10;;;;;;5077254;28;20360;-79
2021/08/24 03:57:07;;;;;;;1.88;0.95;;;19.30;95.00;;;;;;5095201;28;20074;-79
2021/08/24 03:59:33;;;;;;;2.08;0.80;;;19.30;95.00;;;;;;5094877;28;20392;-79
2021/08/24 04:01:58;;;;;;;1.33;1.00;;;19.20;95.10;;;;;;5095048;28;20028;-79
2021/08/24 04:04:24;;;;;;;5.22;1.10;;;19.20;95.20;;;;;;5076934;28;20035;-78
2021/08/24 04:06:50;;;;;;;1.42;1.20;;;19.10;95.00;;;;;;5094906;28;20384;-78
2021/08/24 04:09:15;;;;;;;1.00;1.00;;;19.20;94.90;;;;;;5094693;28;20071;-78
2021/08/24 04:11:41;;;;;;;0.88;0.85;;;19.20;94.60;;;;;;5076935;28;20387;-79
2021/08/24 04:14:07;;;;;;;0.90;0.90;;;19.20;94.80;;;;;;5094806;28;20020;-79
2021/08/24 04:16:33;;;;;;;1.05;1.05;;;19.20;95.10;;;;;;5094887;28;20034;-79
2021/08/24 04:18:58;;;;;;;3.75;0.90;;;19.20;94.30;;;;;;5076595;28;20028;-79
2021/08/24 04:21:24;;;;;;;1.02;0.95;;;19.20;94.50;;;;;;5094762;28;20020;-79
2021/08/24 04:23:50;;;;;;;0.73;0.73;;;19.20;94.60;;;;;;5094599;28;20067;-79
2021/08/24 04:26:17;;;;;;;1.67;1.30;;;19.20;94.60;;;;;;5094581;28;20066;-78
2021/08/24 04:28:43;;;;;;;1.48;1.20;;;19.10;94.50;;;;;;5076039;28;20028;-79
2021/08/24 04:31:12;;;;;;;1.38;1.10;;;19.20;94.50;;;;;;5094376;28;20417;-78
2021/08/24 04:33:38;;;;;;;1.40;1.08;;;19.30;94.70;;;;;;5094399;28;20031;-78
2021/08/24 04:36:06;;;;;;;1.00;1.00;;;19.30;94.70;;;;;;5076113;28;20028;-79
2021/08/24 04:38:33;;;;;;;1.08;1.00;;;19.30;95.00;;;;;;5094178;28;20056;-79
2021/08/24 04:41:00;;;;;;;1.20;1.10;;;19.20;95.20;;;;;;5094189;28;20084;-79
2021/08/24 04:43:26;;;;;;;3.22;1.00;;;19.10;95.30;;;;;;5094263;28;20024;-79
2021/08/24 04:45:52;;;;;;;1.08;1.08;;;19.00;95.50;;;;;;5094169;28;20020;-79
2021/08/24 04:48:18;;;;;;;1.10;1.00;;;19.00;95.60;;;;;;5094169;28;20043;-79
2021/08/24 04:50:44;;;;;;;0.90;0.90;;;19.00;95.70;;;;;;5094010;28;20032;-79
2021/08/24 04:53:10;;;;;;;1.50;1.10;;;18.90;95.70;;;;;;5093949;28;20024;-79
2021/08/24 04:55:36;;;;;;;1.08;1.00;;;18.90;95.60;;;;;;5094010;28;20484;-79
2021/08/24 04:58:03;;;;;;;0.73;0.73;;;18.90;95.30;;;;;;5075157;28;20036;-78
2021/08/24 05:00:30;;;;;;;2.70;0.82;;;18.90;95.30;;;;;;5093674;28;20437;-78
2021/08/24 05:02:56;;;;;;;2.83;1.30;;;18.90;95.00;;;;;;5093657;28;20434;-79
2021/08/24 05:05:22;;;;;;;1.33;1.23;;;19.00;95.00;;;;;;5074007;28;20031;-78
2021/08/24 05:07:48;;;;;;;0.80;0.80;;;18.90;94.80;;;;;;5073029;28;20692;-79
2021/08/24 05:10:13;;;;;;;1.00;1.00;;;18.90;95.00;;;;;;5080450;28;20050;-79
2021/08/24 05:12:39;;;;;;;0.82;0.82;;;19.00;95.20;;;;;;5093634;28;20104;-79
2021/08/24 05:15:06;;;;;;;1.10;0.88;;;19.00;95.10;;;;;;5075348;28;20039;-79
2021/08/24 05:17:32;;;;;;;1.20;1.10;;;18.90;95.20;;;;;;5073851;28;20020;-79
2021/08/24 05:19:57;;;;;;;1.80;0.77;;;18.90;95.30;;;;;;5093606;28;20070;-78
2021/08/24 05:22:23;;;;;;;1.30;0.88;;;18.80;95.40;;;;;;5093581;28;20028;-79
2021/08/24 05:24:49;;;;;;;4.65;1.17;;;18.80;95.40;;;;;;5093307;28;20495;-79
2021/08/24 05:27:15;;;;;;;1.10;1.02;;;18.80;95.40;;;;;;5093542;28;20027;-79
2021/08/24 05:29:40;;;;;;;0.77;0.77;;;18.80;95.30;;;;;;5093276;28;20490;-79
2021/08/24 05:32:07;;;;;;;1.35;0.90;;;18.90;95.10;;;;;;5093412;28;20020;-79
2021/08/24 05:34:33;;;;;;;4.55;1.05;;;18.90;94.80;;;;;;5093227;28;20047;-79
2021/08/24 05:36:58;;;;;;;1.30;1.20;;;18.90;94.50;;;;;;5093314;28;20032;-79
2021/08/24 05:39:24;;;;;;;1.05;0.95;;;19.00;94.50;;;;;;5074948;28;20437;-79
2021/08/24 05:41:51;;;;;;;3.70;0.73;;;19.00;94.80;;;;;;5075170;28;20031;-79
2021/08/24 05:44:17;;;;;;;1.05;1.05;;;19.00;94.70;;;;;;5075040;28;20066;-79
2021/08/24 05:46:42;;;;;;;0.90;0.90;;;19.10;94.40;;;;;;5093014;28;20107;-79
2021/08/24 05:49:09;;;;;;;0.73;0.73;;;19.20;94.20;;;;;;5093042;28;20122;-79
2021/08/24 05:51:37;;;;;;;1.02;1.02;;;19.30;94.40;;;;;;5074781;28;20020;-78
2021/08/24 05:54:03;;;;;;;0.90;0.90;;;19.30;94.60;;;;;;5074822;28;20089;-79
2021/08/24 05:56:29;;;;;;;0.77;0.77;;;19.40;94.50;;;;;;5092971;28;20468;-79
2021/08/24 05:58:55;;;;;;;1.13;1.00;;;19.40;94.50;;;;;;5093013;28;20513;-79
2021/08/24 06:01:26;;;;;;;1.10;1.10;;;19.40;94.60;;;;;;5092942;28;20028;-79
2021/08/24 06:03:53;;;;;;;0.90;0.90;;;19.50;95.00;;;;;;5067806;28;20052;-79
2021/08/24 06:06:22;;;;;;;1.25;0.98;;;19.60;94.80;;;;;;5072917;28;20055;-79
2021/08/24 06:08:48;;;;;;;1.00;0.90;;;19.60;94.70;;;;;;5080087;28;20381;-79
2021/08/24 06:11:35;;;;;;;1.08;1.00;;;19.60;94.40;;;;;;5092807;28;20024;-78
2021/08/24 06:14:02;;;;;;;1.17;0.82;;;19.70;94.40;;;;;;5097088;28;20031;-79
2021/08/24 06:16:29;;;;;;;0.85;0.85;;;19.80;94.90;;;;;;5078697;28;20107;-79
2021/08/24 06:18:55;;;;;;;4.35;1.42;;;19.90;94.90;;;;;;5078352;28;20100;-78
2021/08/24 06:21:21;;;;;;;4.97;1.17;;;20.00;93.90;;;;;;5097093;28;20081;-77
2021/08/24 06:23:47;;;;;;;2.20;0.93;;;20.00;93.60;;;;;;5096746;28;20645;-78
2021/08/24 06:26:13;;;;;;;0.95;0.95;;;20.10;93.80;;;;;;5078872;28;20024;-77
2021/08/24 06:28:39;;;;;;;0.80;0.80;;;20.50;99.10;;;;;;5078088;28;20028;-77
2021/08/24 06:31:06;;;;;;;0.77;0.77;;;20.60;94.30;;;;;;5096306;28;20073;-77
2021/08/24 06:33:37;;;;;;;0.65;0.65;;;20.60;93.70;;;;;;5095882;28;20031;-77
2021/08/24 06:36:04;;;;;;;3.97;0.97;;;20.60;93.60;;;;;;5078198;28;20016;-77
2021/08/24 06:38:31;;;;;;;2.55;1.65;;;20.60;94.10;;;;;;5096121;28;20623;-77
2021/08/24 06:40:58;;;;;;;0.90;0.90;;;20.60;94.10;;;;;;5096271;28;20030;-77
2021/08/24 06:43:24;;;;;;;0.90;0.90;;;20.70;93.30;;;;;;5096414;28;20024;-77
2021/08/24 06:45:50;;;;;;;2.55;1.17;;;20.70;93.80;;;;;;5096108;28;20036;-77
2021/08/24 06:48:16;;;;;;;1.90;1.10;;;20.70;95.00;;;;;;5096157;28;20115;-77
2021/08/24 06:50:43;;;;;;;3.10;1.30;;;20.80;94.60;;;;;;5096388;28;20020;-77
2021/08/24 06:53:10;;;;;;;1.10;1.10;;;20.90;94.90;;;;;;5078050;28;20409;-77
2021/08/24 06:55:38;;;;;;;0.80;0.80;;;20.90;94.40;;;;;;5096253;28;20050;-78
2021/08/24 06:58:07;;;;;;;1.55;1.27;;;21.00;94.40;;;;;;5096353;28;20041;-77
2021/08/24 07:00:35;;;;;;;1.33;1.23;;;21.00;94.30;;;;;;5095713;28;20024;-77
2021/08/24 07:03:01;;;;;;;1.15;1.08;;;21.00;94.00;;;;;;5074567;28;20386;-77
2021/08/24 07:05:29;;;;;;;1.10;1.00;;;21.10;94.00;;;;;;5082961;28;20032;-77
2021/08/24 07:07:55;;;;;;;1.42;1.27;;;21.20;94.70;;;;;;5067993;28;20562;-76
2021/08/24 07:10:22;;;;;;;1.13;1.13;;;21.20;94.10;;;;;;5070124;28;20052;-77
2021/08/24 07:12:48;;;;;;;1.50;1.40;;;21.20;94.40;;;;;;5071062;28;20021;-76
2021/08/24 07:15:21;;;;;;;5.65;1.30;;;21.30;94.80;;;;;;5066622;28;20027;-77
2021/08/24 07:17:50;;;;;;;1.63;1.52;;;21.40;95.10;;;;;;5066425;28;20029;-77
2021/08/24 07:20:18;;;;;;;4.05;1.27;;;21.40;95.20;;;;;;5061328;28;20496;-77
2021/08/24 07:22:44;;;;;;;1.27;1.17;;;21.50;95.40;;;;;;5071378;28;20512;-77
2021/08/24 07:25:13;;;;;;;1.48;1.38;;;21.60;95.70;;;;;;5066011;28;20025;-77
2021/08/24 07:27:39;;;;;;;1.80;1.30;;;21.60;95.90;;;;;;5067629;28;20056;-77
2021/08/24 07:30:06;;;;;;;3.63;1.50;;;21.70;95.00;;;;;;5069436;28;20380;-77
2021/08/24 07:32:31;;;;;;;2.45;1.88;;;21.80;95.00;;;;;;5066244;28;20046;-77
2021/08/24 07:34:58;;;;;;;1.77;1.65;;;21.80;95.30;;;;;;5069835;28;20100;-77
2021/08/24 07:37:34;;;;;;;3.65;1.42;;;21.90;94.20;;;;;;5063351;28;20024;-77
2021/08/24 07:40:00;;;;;;;1.75;1.63;;;22.00;93.90;;;;;;5063241;28;20727;-77
2021/08/24 07:42:26;;;;;;;1.63;1.50;;;22.10;93.70;;;;;;5068453;28;20028;-77
2021/08/24 07:44:52;;;;;;;3.83;1.45;;;22.10;94.10;;;;;;5063434;28;20171;-77
2021/08/24 07:47:17;;;;;;;2.15;1.50;;;22.20;95.30;;;;;;5069094;28;20035;-77
2021/08/24 07:49:46;;;;;;;1.65;1.55;;;22.20;94.40;;;;;;5063662;28;20032;-77
2021/08/24 07:52:13;;;;;;;4.63;1.77;;;22.30;94.50;;;;;;5067163;28;20033;-77
2021/08/24 07:54:39;;;;;;;5.13;1.75;;;22.30;94.20;;;;;;5071702;28;20048;-77
2021/08/24 07:57:05;;;;;;;1.77;1.30;;;22.40;94.00;;;;;;5072672;28;20017;-76
2021/08/24 07:59:31;;;;;;;1.35;1.10;;;22.40;94.60;;;;;;5057347;28;20043;-76
2021/08/24 08:01:58;;;;;;;5.82;2.80;;;22.60;95.70;;;;;;5061354;28;20032;-76
2021/08/24 08:04:25;;;;;;;1.52;1.42;;;22.70;95.70;;;;;;5067598;28;20029;-76
2021/08/24 08:06:51;;;;;;;3.10;1.30;;;22.70;92.00;;;;;;5061824;28;20076;-76
2021/08/24 08:09:20;;;;;;;3.35;2.22;;;22.70;92.60;;;;;;5080478;28;20154;-75
2021/08/24 08:11:49;;;;;;;3.28;2.00;;;22.80;92.20;;;;;;5072761;28;20036;-76
2021/08/24 08:14:16;;;;;;;2.15;1.77;;;22.90;93.20;;;;;;5084401;28;20078;-76
2021/08/24 08:16:42;;;;;;;1.50;1.40;;;22.90;93.50;;;;;;5074615;28;20484;-76
2021/08/24 08:19:08;;;;;;;3.47;1.80;;;22.90;92.00;;;;;;5089971;28;20099;-76
2021/08/24 08:21:36;;;;;;;4.60;1.83;;;23.00;92.60;;;;;;5067932;28;20032;-75
2021/08/24 08:24:04;;;;;;;2.15;1.77;;;23.00;92.80;;;;;;5090898;28;20038;-76
2021/08/24 08:26:30;;;;;;;3.08;1.63;;;23.10;92.50;;;;;;5084603;28;20034;-76
2021/08/24 08:28:56;;;;;;;4.00;1.52;;;23.10;92.60;;;;;;5082746;28;20437;-75
2021/08/24 08:31:24;;;;;;;1.65;1.50;;;23.20;92.30;;;;;;5080866;28;20052;-76
2021/08/24 08:33:51;;;;;;;3.30;1.33;;;23.20;92.40;;;;;;5062953;28;20081;-75
2021/08/24 08:36:17;;;;;;;1.30;1.20;;;23.30;91.80;;;;;;5082846;28;20494;-76
2021/08/24 08:38:44;;;;;;;2.05;1.20;;;23.30;92.10;;;;;;5080814;28;20102;-76
2021/08/24 08:41:18;;;;;;;5.53;1.05;;;23.40;90.10;;;;;;5073400;28;20153;-76
2021/08/24 08:44:01;;;;;;;5.45;1.30;;;23.40;90.40;;;;;;5067510;28;20035;-76
2021/08/24 08:46:38;;;;;;;1.63;1.30;;;23.50;88.40;;;;;;5081318;28;20698;-76
2021/08/24 08:49:31;;;;;;;1.35;1.10;;;23.50;88.80;;;;;;5080736;28;20082;-76
2021/08/24 08:52:05;;;;;;;1.63;1.10;;;23.60;90.60;;;;;;5081491;28;20064;-75
2021/08/24 08:54:55;;;;;;;3.45;1.25;;;23.70;89.60;;;;;;5091754;28;20028;-76
2021/08/24 08:57:47;;;;;;;1.42;1.20;;;23.70;90.20;;;;;;5078703;28;20020;-76
2021/08/24 09:00:20;;;;;;;1.30;1.20;;;23.70;87.80;;;;;;5082321;28;20043;-76
2021/08/24 09:02:59;;;;;;;3.10;1.05;;;23.80;84.30;;;;;;5059919;28;20028;-76
2021/08/24 09:05:26;;;;;;;0.85;0.85;;;23.80;84.40;;;;;;5089716;28;20024;-76
2021/08/24 09:07:55;;;;;;;1.27;1.17;;;23.80;86.70;;;;;;5088737;28;20040;-75
2021/08/24 09:10:32;;;;;;;2.88;0.85;;;23.90;85.20;;;;;;5067671;28;21322;-76
2021/08/24 09:13:14;;;;;;;1.73;0.98;;;23.90;81.60;;;;;;5091511;28;20483;-75
2021/08/24 09:15:44;;;;;;;3.65;1.58;;;24.00;79.60;;;;;;5085227;28;20021;-76
2021/08/24 09:18:15;;;;;;;3.70;1.25;;;24.10;81.70;;;;;;5090531;28;20051;-76
2021/08/24 09:21:00;;;;;;;12.98;2.33;;;24.10;80.90;;;;;;5083713;28;20067;-76
2021/08/24 09:23:26;;;;;;;1.40;1.30;;;24.10;81.40;;;;;;5085468;28;20434;-73
2021/08/24 09:26:07;;;;;;;2.22;1.15;;;24.10;80.70;;;;;;5065345;28;20039;-73
2021/08/24 09:28:34;;;;;;;2.85;1.30;;;24.20;80.80;;;;;;5084043;28;20042;-73
2021/08/24 09:31:02;;;;;;;2.20;1.40;;;24.20;79.60;;;;;;5071464;28;20028;-73
2021/08/24 09:33:31;;;;;;;1.60;1.00;;;24.40;77.00;;;;;;5081165;28;20028;-73
2021/08/24 09:35:57;;;;;;;1.42;1.20;;;24.40;76.90;;;;;;5085720;28;20024;-76
2021/08/24 09:38:31;;;;;;;0.90;0.90;;;24.50;76.00;;;;;;5078133;28;20523;-76
2021/08/24 09:40:59;;;;;;;4.25;1.33;;;24.50;74.40;;;;;;5082615;28;20050;-76
2021/08/24 09:43:35;;;;;;;1.70;1.20;;;24.50;76.60;;;;;;5084630;28;20473;-76
2021/08/24 09:46:15;;;;;;;4.55;2.05;;;24.60;75.30;;;;;;5090730;28;20042;-76
2021/08/24 09:48:53;;;;;;;22.73;5.55;;;24.60;74.30;;;;;;5068770;28;20016;-76
2021/08/24 09:52:05;;;;;;;3.72;2.00;;;24.60;74.70;;;;;;5088904;28;20024;-75
2021/08/24 09:54:49;;;;;;;1.77;1.30;;;24.60;76.00;;;;;;5054689;28;20020;-75
2021/08/24 09:57:34;;;;;;;2.60;1.33;;;24.70;78.50;;;;;;5073838;28;20071;-73
2021/08/24 10:00:05;;;;;;;1.30;0.93;;;24.70;77.60;;;;;;5081865;28;20085;-73
2021/08/24 10:02:35;;;;;;;1.50;1.13;;;24.80;77.90;;;;;;5078346;28;20086;-73
2021/08/24 10:05:01;;;;;;;1.67;0.95;;;24.90;76.10;;;;;;5068410;28;20037;-74
2021/08/24 10:07:47;;;;;;;3.13;1.80;;;24.90;73.10;;;;;;5079526;28;20024;-75
2021/08/24 10:10:35;;;;;;;1.30;1.20;;;24.90;74.10;;;;;;5067573;28;20125;-76
2021/08/24 10:13:30;;;;;;;1.23;1.08;;;25.00;73.30;;;;;;5066832;28;20119;-73
2021/08/24 10:16:20;;;;;;;1.30;1.20;;;25.00;75.30;;;;;;5067866;28;20046;-74
2021/08/24 10:18:50;;;;;;;0.90;0.90;;;25.00;74.20;;;;;;5071854;28;20699;-74
2021/08/24 10:21:35;;;;;;;1.05;1.00;;;25.10;74.20;;;;;;5076570;28;20031;-74
2021/08/24 10:24:03;;;;;;;3.30;1.00;;;25.10;74.50;;;;;;5067968;28;20096;-73
2021/08/24 10:26:34;;;;;;;2.05;1.27;;;25.20;73.50;;;;;;5077237;28;20028;-73
2021/08/24 10:29:03;;;;;;;3.70;1.25;;;25.30;74.10;;;;;;5086379;28;20028;-73
2021/08/24 10:31:35;;;;;;;0.80;0.80;;;25.40;75.50;;;;;;5072412;28;20530;-73
2021/08/24 10:34:29;;;;;;;1.63;1.48;;;25.40;69.70;;;;;;5080127;28;20131;-73
2021/08/24 10:37:23;;;;;;;1.30;1.02;;;25.50;71.60;;;;;;5071090;28;20510;-74
2021/08/24 10:40:05;;;;;;;0.98;0.98;;;25.60;67.80;;;;;;5077915;28;20649;-74
2021/08/24 10:42:31;;;;;;;2.25;0.93;;;25.60;70.10;;;;;;5071283;28;20028;-73
2021/08/24 10:45:00;;;;;;;1.20;1.10;;;25.70;71.60;;;;;;5075234;28;20089;-74
2021/08/24 10:47:25;;;;;;;1.52;0.73;;;25.70;68.90;;;;;;5082158;28;20028;-73
2021/08/24 10:49:54;;;;;;;1.08;1.02;;;25.70;66.80;;;;;;5083233;28;20020;-74
2021/08/24 10:52:32;;;;;;;0.80;0.80;;;25.60;68.70;;;;;;5087076;28;20013;-74
2021/08/24 10:55:41;;;;;;;2.53;1.10;;;25.70;70.10;;;;;;5087502;28;20467;-74
2021/08/24 10:58:13;;;;;;;1.10;1.00;;;25.80;68.60;;;;;;5026020;28;20136;-74
2021/08/24 11:01:00;;;;;;;1.13;0.73;;;25.80;67.70;;;;;;5027879;28;20084;-74
2021/08/24 11:03:45;;;;;;;6.93;1.10;;;25.80;68.90;;;;;;5068106;28;20111;-74
2021/08/24 11:06:32;;;;;;;7.30;1.40;;;25.80;68.00;;;;;;5087094;28;20024;-74
2021/08/24 11:09:10;;;;;;;2.05;1.60;;;25.90;69.80;;;;;;5087942;28;20044;-75
2021/08/24 11:11:54;;;;;;;2.00;1.80;;;26.10;71.20;;;;;;5088486;28;20024;-75
2021/08/24 11:14:46;;;;;;;2.55;2.08;;;26.20;70.20;;;;;;5067141;28;20033;-74
2021/08/24 11:17:23;;;;;;;2.38;1.90;;;26.20;71.80;;;;;;5093524;28;20024;-74
2021/08/24 11:19:54;;;;;;;2.50;2.30;;;26.30;70.00;;;;;;5084389;28;20032;-75
2021/08/24 11:22:42;;;;;;;1.98;1.85;;;26.30;72.20;;;;;;5091210;28;20020;-75
2021/08/24 11:25:27;;;;;;;1.98;1.88;;;26.50;71.80;;;;;;5085174;28;20099;-74
2021/08/24 11:28:08;;;;;;;2.38;1.98;;;26.50;70.90;;;;;;5087473;28;20028;-75
2021/08/24 11:30:50;;;;;;;6.85;2.03;;;26.60;71.70;;;;;;5079224;28;20028;-74
2021/08/24 11:33:27;;;;;;;3.63;1.80;;;26.70;69.90;;;;;;5086716;28;20012;-75
2021/08/24 11:36:25;;;;;;;5.45;2.10;;;26.70;70.20;;;;;;5082701;28;20280;-75
2021/08/24 11:39:03;;;;;;;4.85;1.92;;;26.80;66.70;;;;;;5078746;28;20640;-74
2021/08/24 11:41:29;;;;;;;1.48;1.38;;;26.90;65.90;;;;;;5084109;28;20028;-75
2021/08/24 11:44:14;;;;;;;1.70;1.60;;;26.90;66.60;;;;;;5083695;28;20043;-75
2021/08/24 11:46:54;;;;;;;2.05;1.63;;;26.90;66.40;;;;;;5081585;28;20046;-75
2021/08/24 11:49:38;;;;;;;3.63;1.60;;;26.90;67.30;;;;;;5081936;28;20027;-75
2021/08/24 11:52:23;;;;;;;1.75;1.65;;;27.10;65.80;;;;;;5087094;28;20078;-75
2021/08/24 11:55:11;;;;;;;1.70;1.60;;;27.20;69.40;;;;;;5067111;28;20398;-75
2021/08/24 11:57:52;;;;;;;1.58;1.48;;;27.30;68.00;;;;;;5084966;28;20046;-75
2021/08/24 12:00:18;;;;;;;1.58;1.17;;;27.40;69.10;;;;;;5083925;28;20139;-75
2021/08/24 12:02:48;;;;;;;4.05;1.77;;;27.40;68.00;;;;;;5092511;28;20020;-75
2021/08/24 12:05:26;;;;;;;1.92;1.45;;;27.50;70.10;;;;;;5087009;28;20089;-75
2021/08/24 12:08:09;;;;;;;1.88;1.50;;;27.50;64.30;;;;;;5061934;28;20036;-74
2021/08/24 12:10:50;;;;;;;2.35;1.75;;;27.30;64.00;;;;;;5088491;28;20496;-76
2021/08/24 12:13:33;;;;;;;2.00;1.30;;;27.30;67.80;;;;;;5092832;28;20102;-76
2021/08/24 12:16:23;;;;;;;3.25;1.38;;;27.30;65.80;;;;;;5079614;28;20056;-76
2021/08/24 12:19:17;;;;;;;3.08;1.10;;;27.30;68.20;;;;;;5063745;28;20033;-76
2021/08/24 12:21:54;;;;;;;1.33;1.23;;;27.30;67.70;;;;;;5075790;28;20060;-75
2021/08/24 12:24:30;;;;;;;1.10;1.10;;;27.30;66.70;;;;;;5076216;28;20032;-75
2021/08/24 12:26:56;;;;;;;1.27;1.15;;;27.30;66.10;;;;;;5058977;28;20028;-75
2021/08/24 12:29:36;;;;;;;1.60;1.50;;;27.30;66.00;;;;;;5078356;28;20395;-75
2021/08/24 12:32:20;;;;;;;3.05;1.48;;;27.30;64.60;;;;;;5075324;28;20492;-75
2021/08/24 12:34:52;;;;;;;3.05;1.35;;;27.20;64.90;;;;;;5066247;28;20103;-75
2021/08/24 12:37:18;;;;;;;1.48;1.38;;;27.30;66.80;;;;;;5082868;28;20576;-75
2021/08/24 12:39:56;;;;;;;1.77;1.67;;;27.20;64.40;;;;;;5079998;28;20036;-75
2021/08/24 12:42:31;;;;;;;2.33;1.38;;;27.10;67.10;;;;;;5087204;28;20384;-75
2021/08/24 12:44:59;;;;;;;2.45;1.80;;;27.00;65.70;;;;;;5086311;28;20028;-75
2021/08/24 12:47:30;;;;;;;1.38;1.27;;;27.00;66.60;;;;;;5078257;28;20027;-75
2021/08/24 12:49:58;;;;;;;2.05;1.63;;;27.00;68.90;;;;;;5080807;28;20115;-75
2021/08/24 12:52:30;;;;;;;1.45;1.20;;;27.20;68.20;;;;;;5077471;28;20017;-75
2021/08/24 12:55:00;;;;;;;1.17;1.10;;;27.40;67.30;;;;;;5076407;28;20097;-74
2021/08/24 12:57:32;;;;;;;1.42;1.30;;;27.50;64.40;;;;;;5086591;28;20557;-75
2021/08/24 13:00:21;;;;;;;1.08;1.02;;;27.70;64.60;;;;;;5065892;28;20103;-75
2021/08/24 13:03:14;;;;;;;2.65;1.40;;;27.90;64.50;;;;;;5071258;28;20054;-74
2021/08/24 13:05:39;;;;;;;1.13;1.10;;;27.90;65.20;;;;;;5082008;28;20024;-75
2021/08/24 13:08:20;;;;;;;16.30;7.67;;;27.90;64.00;;;;;;5065033;28;20049;-75
2021/08/24 13:10:48;;;;;;;4.40;2.05;;;28.00;63.70;;;;;;5067849;28;20020;-75
2021/08/24 13:13:34;;;;;;;1.58;1.48;;;27.90;60.40;;;;;;5088902;28;20024;-75